createdAt,value
2019-04-01T00:00:46.974Z,102273.92
2019-04-01T00:03:54.299Z,102271.81
2019-04-01T00:07:01.659Z,102281.13
2019-04-01T00:10:09.752Z,102272.67
2019-04-01T00:13:26.393Z,102273.10
2019-04-01T00:16:33.621Z,102279.47
2019-04-01T00:19:50.757Z,102277.36
2019-04-01T00:22:58.276Z,102275.21
2019-04-01T00:26:05.831Z,102279.88
2019-04-01T00:29:13.366Z,102285.00
2019-04-01T00:32:20.524Z,102278.63
2019-04-01T00:35:27.760Z,102280.75
2019-04-01T00:38:34.891Z,102286.69
2019-04-01T00:41:59.594Z,102287.11
2019-04-01T00:45:08.552Z,102285.39
2019-04-01T00:48:15.796Z,102281.58
2019-04-01T00:51:23.035Z,102292.61
2019-04-01T00:54:30.166Z,102285.84
2019-04-01T00:57:37.377Z,102283.73
2019-04-01T01:00:44.625Z,102283.27
2019-04-01T01:03:51.841Z,102286.23
2019-04-01T01:06:59.384Z,102287.92
2019-04-01T01:10:08.193Z,102281.58
2019-04-01T01:13:15.537Z,102284.95
2019-04-01T01:16:22.789Z,102279.02
2019-04-01T01:19:30.642Z,102275.19
2019-04-01T01:22:36.877Z,102277.30
2019-04-01T01:25:44.088Z,102270.92
2019-04-01T01:28:51.373Z,102269.72
2019-04-01T01:31:58.638Z,102262.45
2019-04-01T01:35:06.152Z,102262.48
2019-04-01T01:38:22.684Z,102272.23
2019-04-01T01:41:29.823Z,102268.83
2019-04-01T01:44:36.948Z,102262.02
2019-04-01T01:47:44.333Z,102264.56
2019-04-01T01:50:51.585Z,102262.02
2019-04-01T01:54:08.290Z,102259.45
2019-04-01T01:57:15.503Z,102261.99
2019-04-01T02:00:23.879Z,102257.33
2019-04-01T02:03:31.120Z,102258.17
2019-04-01T02:06:38.259Z,102255.17
2019-04-01T02:09:43.873Z,102255.63
2019-04-01T02:12:51.116Z,102256.93
2019-04-01T02:15:58.355Z,102259.48
2019-04-01T02:19:05.703Z,102253.09
2019-04-01T02:22:13.017Z,102256.52
2019-04-01T02:25:20.353Z,102253.09
2019-04-01T02:28:28.133Z,102253.48
2019-04-01T02:31:35.430Z,102257.72
2019-04-01T02:34:42.699Z,102261.53
2019-04-01T02:37:49.996Z,102261.92
2019-04-01T02:40:57.403Z,102254.26
2019-04-01T02:44:04.802Z,102259.30
2019-04-01T02:47:12.102Z,102261.83
2019-04-01T02:50:19.345Z,102263.11
2019-04-01T02:53:26.766Z,102259.77
2019-04-01T02:56:43.481Z,102249.98
2019-04-01T02:59:50.708Z,102268.20
2019-04-01T03:02:58.374Z,102265.27
2019-04-01T03:06:05.996Z,102257.18
2019-04-01T03:09:13.231Z,102252.94
2019-04-01T03:12:20.795Z,102253.74
2019-04-01T03:15:27.942Z,102255.91
2019-04-01T03:18:35.163Z,102255.48
2019-04-01T03:21:42.558Z,102257.13
2019-04-01T03:24:50.241Z,102254.16
2019-04-01T03:28:07.178Z,102256.23
2019-04-01T03:31:14.395Z,102262.22
2019-04-01T03:34:31.143Z,102259.25
2019-04-01T03:37:38.344Z,102257.98
2019-04-01T03:40:55.356Z,102270.73
2019-04-01T03:44:11.943Z,102259.71
2019-04-01T03:47:28.939Z,102267.71
2019-04-01T03:50:45.518Z,102268.44
2019-04-01T03:54:02.313Z,102266.38
2019-04-01T03:57:19.107Z,102268.93
2019-04-01T04:00:26.392Z,102275.21
2019-04-01T04:03:43.142Z,102266.34
2019-04-01T04:06:59.868Z,102270.18
2019-04-01T04:10:16.758Z,102269.77
2019-04-01T04:13:33.449Z,102266.73
2019-04-01T04:16:40.648Z,102276.05
2019-04-01T04:19:57.360Z,102274.31
2019-04-01T04:23:14.200Z,102275.22
2019-04-01T04:26:30.961Z,102278.91
2019-04-01T04:29:47.744Z,102279.73
2019-04-01T04:32:55.079Z,102283.52
2019-04-01T04:36:12.029Z,102283.12
2019-04-01T04:39:28.600Z,102289.11
2019-04-01T04:42:45.398Z,102286.57
2019-04-01T04:46:02.219Z,102292.00
2019-04-01T04:49:09.847Z,102292.87
2019-04-01T04:52:15.983Z,102293.70
2019-04-01T04:55:23.263Z,102297.98
2019-04-01T04:58:30.391Z,102301.45
2019-04-01T05:01:37.626Z,102302.30
2019-04-01T05:04:44.859Z,102302.24
2019-04-01T05:07:52.184Z,102297.98
2019-04-01T05:10:59.587Z,102304.00
2019-04-01T05:14:06.845Z,102306.41
2019-04-01T05:17:14.493Z,102307.64
2019-04-01T05:20:32.683Z,102300.13
2019-04-01T05:23:50.045Z,102306.53
2019-04-01T05:26:58.303Z,102311.20
2019-04-01T05:30:06.111Z,102311.55
2019-04-01T05:33:14.718Z,102308.16
2019-04-01T05:36:34.934Z,102317.05
2019-04-01T05:39:51.468Z,102317.39
2019-04-01T05:43:08.510Z,102310.27
2019-04-01T05:46:25.173Z,102323.39
2019-04-01T05:49:41.949Z,102325.88
2019-04-01T05:52:49.654Z,102330.17
2019-04-01T05:55:56.988Z,102327.70
2019-04-01T05:59:04.320Z,102327.73
2019-04-01T06:02:11.818Z,102333.72
2019-04-01T06:05:19.128Z,102335.84
2019-04-01T06:08:26.528Z,102330.77
2019-04-01T06:11:34.164Z,102338.38
2019-04-01T06:14:50.848Z,102339.31
2019-04-01T06:17:58.047Z,102340.14
2019-04-01T06:21:14.890Z,102337.72
2019-04-01T06:24:32.009Z,102335.61
2019-04-01T06:27:39.319Z,102343.66
2019-04-01T06:30:46.711Z,102346.20
2019-04-01T06:33:54.038Z,102351.33
2019-04-01T06:37:01.343Z,102355.99
2019-04-01T06:40:08.925Z,102352.19
2019-04-01T06:43:16.343Z,102353.47
2019-04-01T06:46:23.702Z,102358.55
2019-04-01T06:49:40.345Z,102353.94
2019-04-01T06:52:47.635Z,102357.73
2019-04-01T06:55:54.637Z,102354.78
2019-04-01T06:59:02.002Z,102353.51
2019-04-01T07:02:18.729Z,102351.86
2019-04-01T07:05:26.237Z,102344.66
2019-04-01T07:08:42.727Z,102350.59
2019-04-01T07:11:59.732Z,102346.81
2019-04-01T07:15:16.337Z,102354.52
2019-04-01T07:18:33.273Z,102353.67
2019-04-01T07:21:50.061Z,102352.40
2019-04-01T07:25:06.909Z,102353.28
2019-04-01T07:28:14.215Z,102352.00
2019-04-01T07:31:30.959Z,102360.53
2019-04-01T07:34:47.625Z,102354.14
2019-04-01T07:37:54.828Z,102355.42
2019-04-01T07:41:11.667Z,102353.75
2019-04-01T07:44:28.478Z,102351.63
2019-04-01T07:47:45.238Z,102354.62
2019-04-01T07:51:01.976Z,102356.73
2019-04-01T07:54:08.812Z,102353.75
2019-04-01T07:57:16.105Z,102359.28
2019-04-01T08:00:23.412Z,102353.73
2019-04-01T08:03:30.762Z,102358.41
2019-04-01T08:06:38.102Z,102362.66
2019-04-01T08:09:54.767Z,102349.47
2019-04-01T08:13:02.051Z,102355.02
2019-04-01T08:16:18.854Z,102352.87
2019-04-01T08:19:35.632Z,102352.83
2019-04-01T08:22:43.421Z,102359.64
2019-04-01T08:25:50.943Z,102355.36
2019-04-01T08:28:58.368Z,102344.28
2019-04-01T08:32:05.761Z,102344.20
2019-04-01T08:35:13.068Z,102346.31
2019-04-01T08:38:20.379Z,102346.33
2019-04-01T08:41:37.222Z,102343.86
2019-04-01T08:44:53.936Z,102347.61
2019-04-01T08:48:10.760Z,102334.73
2019-04-01T08:51:27.475Z,102330.48
2019-04-01T08:54:34.860Z,102331.20
2019-04-01T08:57:51.587Z,102322.56
2019-04-01T09:01:08.368Z,102328.65
2019-04-01T09:04:25.198Z,102331.73
2019-04-01T09:07:42.616Z,102327.38
2019-04-01T09:10:50.301Z,102320.19
2019-04-01T09:13:57.609Z,102322.29
2019-04-01T09:17:04.824Z,102322.38
2019-04-01T09:20:13.797Z,102315.94
2019-04-01T09:23:20.925Z,102308.61
2019-04-01T09:26:28.286Z,102310.86
2019-04-01T09:29:35.541Z,102312.53
2019-04-01T09:32:42.900Z,102304.36
2019-04-01T09:35:59.552Z,102298.23
2019-04-01T09:39:07.713Z,102299.45
2019-04-01T09:42:14.916Z,102305.20
2019-04-01T09:45:22.149Z,102295.19
2019-04-01T09:48:29.351Z,102284.70
2019-04-01T09:51:47.842Z,102287.20
2019-04-01T09:54:45.412Z,102287.92
2019-04-01T09:57:52.548Z,102281.86
2019-04-01T10:00:59.866Z,102279.98
2019-04-01T10:04:07.211Z,102276.88
2019-04-01T10:07:14.594Z,102272.98
2019-04-01T10:10:31.496Z,102266.91
2019-04-01T10:13:58.387Z,102265.91
2019-04-01T10:17:15.165Z,102260.03
2019-04-01T10:20:31.872Z,102261.93
2019-04-01T10:23:48.748Z,102256.58
2019-04-01T10:27:06.281Z,102251.95
2019-04-01T10:30:23.766Z,102254.25
2019-04-01T10:33:30.972Z,102249.97
2019-04-01T10:36:38.218Z,102239.66
2019-04-01T10:39:45.579Z,102240.66
2019-04-01T10:42:52.705Z,102238.19
2019-04-01T10:45:59.979Z,102244.80
2019-04-01T10:49:07.291Z,102240.69
2019-04-01T10:52:14.646Z,102233.77
2019-04-01T10:55:21.536Z,102226.77
2019-04-01T10:58:28.738Z,102224.33
2019-04-01T11:01:36.197Z,102230.02
2019-04-01T11:04:43.541Z,102224.08
2019-04-01T11:07:50.943Z,102222.89
2019-04-01T11:10:58.012Z,102222.42
2019-04-01T11:14:05.295Z,102215.57
2019-04-01T11:17:12.521Z,102215.71
2019-04-01T11:20:20.235Z,102215.36
2019-04-01T11:23:27.764Z,102203.30
2019-04-01T11:26:36.690Z,102201.11
2019-04-01T11:29:43.938Z,102203.99
2019-04-01T11:32:51.435Z,102195.70
2019-04-01T11:35:58.703Z,102196.81
2019-04-01T11:39:07.133Z,102190.30
2019-04-01T11:42:14.402Z,102180.58
2019-04-01T11:45:22.502Z,102181.00
2019-04-01T11:48:30.179Z,102169.16
2019-04-01T11:51:40.017Z,102168.78
2019-04-01T11:54:46.360Z,102161.33
2019-04-01T11:57:53.691Z,102153.85
2019-04-01T12:01:00.985Z,102148.73
2019-04-01T12:04:08.233Z,102146.92
2019-04-01T12:07:15.656Z,102150.94
2019-04-01T12:10:22.957Z,102143.26
2019-04-01T12:13:30.272Z,102133.33
2019-04-01T12:16:46.951Z,102136.57
2019-04-01T12:19:54.180Z,102124.02
2019-04-01T12:23:01.425Z,102117.06
2019-04-01T12:26:18.287Z,102108.97
2019-04-01T12:29:35.147Z,102110.50
2019-04-01T12:32:51.837Z,102102.42
2019-04-01T12:35:59.197Z,102099.81
2019-04-01T12:39:16.116Z,102092.93
2019-04-01T12:42:32.877Z,102094.03
2019-04-01T12:45:49.894Z,102088.13
2019-04-01T12:49:06.946Z,102078.94
2019-04-01T12:52:13.103Z,102081.96
2019-04-01T12:55:20.396Z,102066.47
2019-04-01T12:58:27.551Z,102058.59
2019-04-01T13:01:34.787Z,102052.04
2019-04-01T13:04:41.998Z,102045.10
2019-04-01T13:07:50.403Z,102038.95
2019-04-01T13:10:58.271Z,102029.34
2019-04-01T13:14:06.771Z,102029.97
2019-04-01T13:17:14.002Z,102029.54
2019-04-01T13:20:21.329Z,102016.39
2019-04-01T13:23:28.444Z,102009.57
2019-04-01T13:26:35.680Z,102001.95
2019-04-01T13:29:42.994Z,101991.77
2019-04-01T13:32:50.227Z,101986.89
2019-04-01T13:35:57.459Z,101988.77
2019-04-01T13:39:05.977Z,101975.48
2019-04-01T13:42:14.540Z,101973.86
2019-04-01T13:45:21.818Z,101962.22
2019-04-01T13:48:28.942Z,101959.80
2019-04-01T13:51:36.182Z,101954.27
2019-04-01T13:54:43.573Z,101943.56
2019-04-01T13:57:51.020Z,101935.89
2019-04-01T14:00:58.321Z,101927.77
2019-04-01T14:04:05.703Z,101934.16
2019-04-01T14:07:13.088Z,101929.42
2019-04-01T14:10:20.403Z,101925.34
2019-04-01T14:13:37.264Z,101911.98
2019-04-01T14:16:44.391Z,101910.69
2019-04-01T14:19:51.629Z,101909.74
2019-04-01T14:23:08.520Z,101897.58
2019-04-01T14:26:15.743Z,101896.37
2019-04-01T14:29:22.970Z,101887.55
2019-04-01T14:32:39.797Z,101876.66
2019-04-01T14:35:56.616Z,101870.19
2019-04-01T14:39:05.783Z,101867.91
2019-04-01T14:42:22.185Z,101848.66
2019-04-01T14:45:29.388Z,101851.50
2019-04-01T14:48:36.637Z,101844.84
2019-04-01T14:51:43.873Z,101843.78
2019-04-01T14:54:54.772Z,101833.44
2019-04-01T14:58:09.513Z,101827.79
2019-04-01T15:01:26.385Z,101825.01
2019-04-01T15:04:43.194Z,101822.12
2019-04-01T15:08:00.109Z,101812.98
2019-04-01T15:11:16.939Z,101804.81
2019-04-01T15:14:33.693Z,101805.69
2019-04-01T15:17:41.070Z,101798.42
2019-04-01T15:20:57.851Z,101783.53
2019-04-01T15:24:14.565Z,101788.11
2019-04-01T15:27:31.381Z,101783.10
2019-04-01T15:30:48.178Z,101776.98
2019-04-01T15:34:05.113Z,101767.45
2019-04-01T15:37:23.132Z,101762.68
2019-04-01T15:40:33.177Z,101763.76
2019-04-01T15:43:40.176Z,101757.20
2019-04-01T15:46:57.975Z,101745.03
2019-04-01T15:50:27.819Z,101745.55
2019-04-01T15:53:34.752Z,101734.30
2019-04-01T15:56:51.561Z,101730.40
2019-04-01T15:59:58.799Z,101736.98
2019-04-01T16:03:06.023Z,101740.36
2019-04-01T16:06:22.847Z,101726.28
2019-04-01T16:09:39.641Z,101723.25
2019-04-01T16:12:56.406Z,101720.89
2019-04-01T16:16:03.771Z,101717.98
2019-04-01T16:19:20.469Z,101708.79
2019-04-01T16:22:37.273Z,101703.28
2019-04-01T16:25:53.994Z,101698.91
2019-04-01T16:29:01.136Z,101693.62
2019-04-01T16:32:08.455Z,101693.33
2019-04-01T16:35:25.325Z,101686.98
2019-04-01T16:38:47.979Z,101688.98
2019-04-01T16:42:04.845Z,101676.41
2019-04-01T16:45:21.627Z,101675.84
2019-04-01T16:48:38.659Z,101676.27
2019-04-01T16:51:55.126Z,101677.76
2019-04-01T16:55:12.218Z,101680.75
2019-04-01T16:58:28.849Z,101675.47
2019-04-01T17:01:45.601Z,101667.16
2019-04-01T17:04:52.879Z,101673.53
2019-04-01T17:08:00.079Z,101672.83
2019-04-01T17:11:07.368Z,101669.73
2019-04-01T17:14:24.415Z,101663.59
2019-04-01T17:17:32.213Z,101665.72
2019-04-01T17:20:39.499Z,101662.01
2019-04-01T17:23:46.811Z,101657.02
2019-04-01T17:27:12.766Z,101653.45
2019-04-01T17:30:19.997Z,101649.80
2019-04-01T17:33:27.263Z,101648.52
2019-04-01T17:36:34.530Z,101646.95
2019-04-01T17:39:41.799Z,101641.81
2019-04-01T17:42:49.097Z,101643.89
2019-04-01T17:45:56.403Z,101643.97
2019-04-01T17:49:03.807Z,101636.94
2019-04-01T17:52:10.952Z,101638.94
2019-04-01T17:55:18.337Z,101636.06
2019-04-01T17:58:26.090Z,101629.44
2019-04-01T18:01:42.377Z,101627.75
2019-04-01T18:04:49.560Z,101626.67
2019-04-01T18:07:56.867Z,101629.55
2019-04-01T18:11:15.979Z,101628.05
2019-04-01T18:14:32.049Z,101629.73
2019-04-01T18:17:48.755Z,101638.82
2019-04-01T18:21:05.629Z,101641.63
2019-04-01T18:24:23.147Z,101647.11
2019-04-01T18:27:30.867Z,101656.59
2019-04-01T18:30:54.113Z,101657.09
2019-04-01T18:34:11.197Z,101655.75
2019-04-01T18:37:27.529Z,101652.09
2019-04-01T18:40:35.858Z,101656.70
2019-04-01T18:43:43.156Z,101655.13
2019-04-01T18:46:50.329Z,101653.56
2019-04-01T18:49:57.543Z,101649.34
2019-04-01T18:53:04.877Z,101649.84
2019-04-01T18:56:12.155Z,101652.02
2019-04-01T18:59:19.389Z,101645.61
2019-04-01T19:02:26.619Z,101647.34
2019-04-01T19:05:34.052Z,101642.63
2019-04-01T19:08:50.760Z,101644.44
2019-04-01T19:12:04.056Z,101640.24
2019-04-01T19:15:16.565Z,101642.91
2019-04-01T19:18:33.170Z,101648.17
2019-04-01T19:21:49.980Z,101641.57
2019-04-01T19:24:57.435Z,101641.80
2019-04-01T19:28:13.958Z,101639.98
2019-04-01T19:31:21.292Z,101641.86
2019-04-01T19:34:37.934Z,101631.44
2019-04-01T19:37:45.254Z,101633.96
2019-04-01T19:41:01.944Z,101625.74
2019-04-01T19:44:09.346Z,101630.34
2019-04-01T19:47:26.057Z,101615.02
2019-04-01T19:50:33.470Z,101623.32
2019-04-01T19:53:49.971Z,101618.11
2019-04-01T19:56:55.805Z,101619.71
2019-04-01T20:00:26.624Z,101618.61
2019-04-01T20:03:30.807Z,101616.74
2019-04-01T20:06:47.694Z,101608.95
2019-04-01T20:10:04.931Z,101604.62
2019-04-01T20:13:12.267Z,101603.60
2019-04-01T20:16:19.639Z,101603.25
2019-04-01T20:19:26.950Z,101597.11
2019-04-01T20:22:34.086Z,101590.98
2019-04-01T20:25:41.459Z,101594.38
2019-04-01T20:28:48.695Z,101589.35
2019-04-01T20:31:56.022Z,101579.24
2019-04-01T20:35:03.327Z,101580.17
2019-04-01T20:38:10.625Z,101575.05
2019-04-01T20:41:18.024Z,101574.02
2019-04-01T20:44:34.799Z,101561.22
2019-04-01T20:47:52.377Z,101555.84
2019-04-01T20:50:59.576Z,101552.98
2019-04-01T20:54:16.625Z,101549.03
2019-04-01T20:57:33.151Z,101546.20
2019-04-01T21:00:49.943Z,101537.48
2019-04-01T21:03:57.069Z,101543.59
2019-04-01T21:07:04.650Z,101531.77
2019-04-01T21:10:21.144Z,101524.84
2019-04-01T21:13:28.334Z,101526.25
2019-04-01T21:16:45.112Z,101521.74
2019-04-01T21:19:52.359Z,101521.95
2019-04-01T21:22:59.483Z,101513.96
2019-04-01T21:26:16.362Z,101511.48
2019-04-01T21:29:33.132Z,101504.97
2019-04-01T21:32:49.836Z,101502.22
2019-04-01T21:35:57.066Z,101506.70
2019-04-01T21:39:06.411Z,101510.77
2019-04-01T21:42:22.699Z,101496.63
2019-04-01T21:45:39.427Z,101496.83
2019-04-01T21:48:46.726Z,101493.48
2019-04-01T21:52:04.508Z,101486.41
2019-04-01T21:55:12.210Z,101482.58
2019-04-01T21:58:20.062Z,101486.53
2019-04-01T22:01:27.672Z,101476.06
2019-04-01T22:04:34.138Z,101480.55
2019-04-01T22:07:50.799Z,101476.70
2019-04-01T22:11:07.709Z,101468.64
2019-04-01T22:14:25.266Z,101456.02
2019-04-01T22:17:32.806Z,101456.95
2019-04-01T22:20:42.600Z,101442.70
2019-04-01T22:23:49.123Z,101442.66
2019-04-01T22:26:56.497Z,101442.17
2019-04-01T22:30:03.908Z,101427.60
2019-04-01T22:33:21.032Z,101421.48
2019-04-01T22:36:31.141Z,101419.86
2019-04-01T22:39:46.579Z,101410.92
2019-04-01T22:42:53.890Z,101416.72
2019-04-01T22:46:10.724Z,101406.41
2019-04-01T22:49:27.372Z,101406.16
2019-04-01T22:52:35.377Z,101399.94
2019-04-01T22:55:43.013Z,101401.92
2019-04-01T22:58:50.308Z,101399.29
2019-04-01T23:01:59.560Z,101390.23
2019-04-01T23:05:16.174Z,101391.05
2019-04-01T23:08:23.471Z,101384.67
2019-04-01T23:11:40.229Z,101387.19
2019-04-01T23:14:47.521Z,101382.05
2019-04-01T23:18:04.342Z,101378.31
2019-04-01T23:21:21.104Z,101374.64
2019-04-01T23:24:37.988Z,101366.27
2019-04-01T23:27:55.477Z,101368.38
2019-04-01T23:31:03.042Z,101370.09
2019-04-01T23:34:10.438Z,101371.11
2019-04-01T23:37:17.562Z,101370.75
2019-04-01T23:40:24.879Z,101374.36
2019-04-01T23:43:32.300Z,101369.15
2019-04-01T23:46:49.019Z,101347.05
2019-04-01T23:49:56.319Z,101351.84
2019-04-01T23:53:03.439Z,101349.83
2019-04-01T23:56:10.642Z,101349.24
2019-04-01T23:59:17.931Z,101345.42
